Time;durP1;ratioP1;P1;durP2;ratioP2;P2;SDS_P1;SDS_P2;PMS_P1;PMS_P2;Temp;Humidity;BMP_temperature;BMP_pressure;BME280_temperature;BME280_humidity;BME280_pressure;Samples;Min_cycle;Max_cycle;Signal;HPM_P1;HPM_P2
2022/11/04 00:01:42;;;;;;;7.05;1.83;;;11.00;99.90;;;;;;5028618;28;20255;-81
2022/11/04 00:04:09;;;;;;;2.05;1.30;;;11.00;99.90;;;;;;5013367;28;20187;-81
2022/11/04 00:06:35;;;;;;;7.03;1.35;;;11.10;99.90;;;;;;5013179;28;20187;-81
2022/11/04 00:09:03;;;;;;;6.15;1.88;;;11.10;99.90;;;;;;5012117;28;20192;-82
2022/11/04 00:14:14;;;;;;;1.85;1.10;;;11.20;99.90;;;;;;5013036;28;20183;-82
2022/11/04 00:19:23;;;;;;;3.08;1.20;;;11.10;99.90;;;;;;5013387;28;20599;-82
2022/11/04 00:30:07;;;;;;;4.07;1.13;;;10.90;99.90;;;;;;5013093;28;20260;-82
2022/11/04 00:35:17;;;;;;;5.50;1.20;;;11.00;99.90;;;;;;5012483;28;20238;-82
2022/11/04 00:37:44;;;;;;;8.20;1.70;;;11.00;99.90;;;;;;5012624;28;20617;-82
2022/11/04 00:40:12;;;;;;;7.53;1.25;;;11.20;99.90;;;;;;5011822;28;20187;-82
2022/11/04 00:42:38;;;;;;;4.40;1.00;;;11.10;99.90;;;;;;5011646;28;20525;-81
2022/11/04 00:45:04;;;;;;;6.22;1.23;;;11.00;99.90;;;;;;5012919;28;20176;-83
2022/11/04 00:47:30;;;;;;;4.68;1.08;;;11.00;99.90;;;;;;5011126;28;20227;-82
2022/11/04 00:49:55;;;;;;;5.47;1.20;;;11.00;99.90;;;;;;5012388;28;20665;-84
2022/11/04 00:52:21;;;;;;;4.50;1.10;;;11.10;99.90;;;;;;5011061;28;20238;-81
2022/11/04 00:54:46;;;;;;;7.30;1.73;;;11.30;99.90;;;;;;5012515;28;20175;-87
2022/11/04 00:57:13;;;;;;;5.35;1.52;;;11.40;99.90;;;;;;5012841;28;20254;-82
2022/11/04 00:59:39;;;;;;;6.25;1.73;;;11.40;99.90;;;;;;5012480;28;20169;-81
2022/11/04 01:02:06;;;;;;;1.45;1.30;;;11.30;99.90;;;;;;5012832;28;20173;-85
2022/11/04 01:04:31;;;;;;;8.23;2.42;;;11.30;99.90;;;;;;5011050;28;20583;-82
2022/11/04 01:06:57;;;;;;;2.75;1.42;;;11.30;99.90;;;;;;5012271;28;20168;-81
2022/11/04 01:09:22;;;;;;;5.75;1.50;;;11.40;99.90;;;;;;5011981;28;20683;-80
2022/11/04 01:11:48;;;;;;;10.35;1.77;;;11.40;99.90;;;;;;5011030;28;20244;-83
2022/11/04 01:14:14;;;;;;;5.97;1.60;;;11.40;99.90;;;;;;5012624;28;20533;-81
2022/11/04 01:16:40;;;;;;;14.52;2.03;;;11.50;99.90;;;;;;5012489;28;20576;-81
2022/11/04 01:19:05;;;;;;;6.72;1.90;;;11.60;99.90;;;;;;5011019;28;20211;-81
2022/11/04 01:21:31;;;;;;;6.13;2.10;;;11.60;99.90;;;;;;5015220;28;20626;-82
2022/11/04 01:23:59;;;;;;;14.57;1.75;;;11.60;99.90;;;;;;5014876;28;20165;-81
2022/11/04 01:26:25;;;;;;;4.45;1.52;;;11.60;99.90;;;;;;5014957;28;20179;-81
2022/11/04 01:28:53;;;;;;;4.05;1.35;;;11.50;99.90;;;;;;5014728;28;20188;-81
2022/11/04 01:31:21;;;;;;;5.75;1.60;;;11.50;99.90;;;;;;5016174;28;20280;-82
2022/11/04 01:33:48;;;;;;;9.73;2.00;;;11.60;99.90;;;;;;5016047;28;20935;-81
2022/11/04 01:36:14;;;;;;;7.35;1.48;;;11.60;99.90;;;;;;5015929;28;20188;-81
2022/11/04 01:38:40;;;;;;;4.10;1.30;;;11.70;99.90;;;;;;5014526;28;20192;-82
2022/11/04 01:41:06;;;;;;;7.47;1.40;;;11.60;99.90;;;;;;5015850;28;20175;-81
2022/11/04 01:44:03;;;;;;;1.90;0.88;;;11.50;99.90;;;;;;5015662;28;20255;-81
2022/11/04 01:46:32;;;;;;;7.53;1.50;;;11.40;99.90;;;;;;5006197;28;20254;-81
2022/11/04 01:49:09;;;;;;;6.32;1.88;;;11.50;99.90;;;;;;5015380;28;20194;-81
2022/11/04 01:51:38;;;;;;;4.10;1.77;;;11.40;99.90;;;;;;5014446;28;20234;-81
2022/11/04 01:54:07;;;;;;;9.65;1.77;;;11.30;99.90;;;;;;5017664;28;20532;-81
2022/11/04 01:56:33;;;;;;;5.10;1.40;;;11.30;99.90;;;;;;5014410;28;20289;-81
2022/11/04 01:59:04;;;;;;;8.20;1.83;;;11.30;99.90;;;;;;5015014;28;20655;-84
2022/11/04 02:01:30;;;;;;;4.05;1.40;;;11.10;99.90;;;;;;5013930;28;20196;-81
2022/11/04 02:06:46;;;;;;;8.60;2.03;;;11.10;99.90;;;;;;5016837;28;20259;-82
2022/11/04 02:09:12;;;;;;;11.82;2.42;;;11.10;99.90;;;;;;5015118;28;20259;-82
2022/11/04 02:14:22;;;;;;;6.30;1.83;;;11.10;99.90;;;;;;5015525;28;20192;-82
2022/11/04 02:16:48;;;;;;;4.97;1.10;;;11.20;99.90;;;;;;5013848;28;20620;-81
2022/11/04 02:19:35;;;;;;;5.13;1.55;;;11.10;99.90;;;;;;5013553;28;20184;-82
2022/11/04 02:22:36;;;;;;;5.13;1.75;;;11.00;99.90;;;;;;5018227;28;20252;-82
2022/11/04 02:25:23;;;;;;;6.70;2.05;;;10.90;99.90;;;;;;4994780;28;20184;-80
2022/11/04 02:28:08;;;;;;;2.72;1.52;;;10.90;99.90;;;;;;5021683;28;20248;-81
2022/11/04 02:30:43;;;;;;;6.18;1.73;;;11.00;99.90;;;;;;5021132;28;20224;-83
2022/11/04 02:33:23;;;;;;;6.63;1.35;;;11.10;99.90;;;;;;5019427;28;20167;-81
2022/11/04 02:36:04;;;;;;;5.30;1.90;;;11.10;99.90;;;;;;5019085;28;20160;-82
2022/11/04 02:38:43;;;;;;;5.00;1.75;;;11.20;99.90;;;;;;5020000;28;20224;-81
2022/11/04 02:41:35;;;;;;;10.38;2.30;;;11.40;99.90;;;;;;5021397;28;20669;-81
2022/11/04 02:44:12;;;;;;;4.88;1.80;;;11.40;99.90;;;;;;5018609;28;20172;-84
2022/11/04 02:46:52;;;;;;;6.70;1.80;;;11.40;99.90;;;;;;5016534;28;20171;-85
2022/11/04 02:49:38;;;;;;;4.63;2.85;;;11.40;99.90;;;;;;5021233;28;20168;-87
2022/11/04 02:52:07;;;;;;;4.03;1.73;;;11.50;99.90;;;;;;5026080;28;20170;-88
2022/11/04 02:54:43;;;;;;;9.60;1.98;;;11.60;99.90;;;;;;5024196;28;20168;-87
2022/11/04 02:57:23;;;;;;;12.98;2.95;;;11.60;99.90;;;;;;5026207;28;20215;-81
2022/11/04 02:59:55;;;;;;;4.25;1.90;;;11.50;99.90;;;;;;5036156;28;20184;-84
2022/11/04 03:02:34;;;;;;;6.13;2.28;;;11.40;99.90;;;;;;5038698;28;20172;-85
2022/11/04 03:05:02;;;;;;;4.50;1.80;;;11.60;99.90;;;;;;5029985;28;20184;-89
2022/11/04 03:07:36;;;;;;;12.45;2.53;;;11.70;99.90;;;;;;5031567;28;20180;-84
2022/11/04 03:10:07;;;;;;;7.35;1.80;;;11.60;99.90;;;;;;5024269;28;20184;-88
2022/11/04 03:12:39;;;;;;;5.90;1.80;;;11.50;99.90;;;;;;5016342;28;20192;-89
2022/11/04 03:15:13;;;;;;;5.20;2.05;;;11.50;99.90;;;;;;5016220;28;20172;-90
2022/11/04 03:17:45;;;;;;;8.38;1.73;;;11.50;99.90;;;;;;5014890;28;20220;-89
2022/11/04 03:20:19;;;;;;;8.82;2.35;;;11.50;99.90;;;;;;5016076;28;20164;-90
2022/11/04 03:22:46;;;;;;;7.55;2.00;;;11.70;99.90;;;;;;5016118;28;20241;-90
2022/11/04 03:25:12;;;;;;;3.97;2.13;;;11.60;99.90;;;;;;5015815;28;20169;-90
2022/11/04 03:27:44;;;;;;;6.82;2.30;;;11.60;99.90;;;;;;5015610;28;20188;-89
2022/11/04 03:30:13;;;;;;;5.00;2.17;;;11.70;99.90;;;;;;5016008;28;20176;-90
2022/11/04 03:32:45;;;;;;;5.75;2.13;;;11.60;99.90;;;;;;5014423;28;20204;-88
2022/11/04 03:35:15;;;;;;;4.68;2.33;;;11.60;99.90;;;;;;5016568;28;20176;-88
2022/11/04 03:37:41;;;;;;;2.88;1.98;;;11.80;99.90;;;;;;5014149;28;20214;-89
2022/11/04 03:40:08;;;;;;;8.40;2.05;;;11.80;99.90;;;;;;5015272;28;20169;-87
2022/11/04 03:42:42;;;;;;;5.03;1.67;;;11.50;99.90;;;;;;5015304;28;20747;-86
2022/11/04 03:45:09;;;;;;;9.10;2.65;;;11.60;99.90;;;;;;5013310;28;20579;-90
2022/11/04 03:47:35;;;;;;;10.20;2.00;;;11.60;99.90;;;;;;5014646;28;20188;-86
2022/11/04 03:50:16;;;;;;;7.45;2.17;;;11.80;99.90;;;;;;5014903;28;20227;-86
2022/11/04 03:52:42;;;;;;;8.77;2.40;;;11.90;99.90;;;;;;5014111;28;20176;-86
2022/11/04 03:55:10;;;;;;;5.68;2.13;;;11.80;99.90;;;;;;5015184;28;20171;-88
2022/11/04 03:57:47;;;;;;;9.02;2.47;;;11.70;99.90;;;;;;5014142;28;20291;-88
2022/11/04 04:00:18;;;;;;;7.97;2.88;;;11.70;99.90;;;;;;5014338;28;20195;-89
2022/11/04 04:02:59;;;;;;;8.77;2.10;;;11.90;99.90;;;;;;5015066;28;20169;-90
2022/11/04 04:05:34;;;;;;;9.10;2.03;;;12.00;99.90;;;;;;5022923;28;20264;-89
2022/11/04 04:08:18;;;;;;;9.18;3.65;;;12.10;99.90;;;;;;5030702;28;20180;-89
2022/11/04 04:11:24;;;;;;;13.27;2.40;;;12.30;99.90;;;;;;5029090;28;20244;-89
2022/11/04 04:13:58;;;;;;;8.73;2.22;;;12.40;99.90;;;;;;5016212;28;20514;-89
2022/11/04 04:16:34;;;;;;;8.18;2.05;;;12.30;99.90;;;;;;5013707;28;20188;-81
2022/11/04 04:19:10;;;;;;;12.98;2.30;;;12.40;99.90;;;;;;5014024;28;20206;-90
2022/11/04 04:21:45;;;;;;;6.75;2.13;;;12.40;99.90;;;;;;5012859;28;20547;-86
2022/11/04 04:29:45;;;;;;;8.93;1.67;;;12.50;99.90;;;;;;5014646;28;20549;-89
2022/11/04 04:32:12;;;;;;;6.82;2.10;;;12.40;99.90;;;;;;5013851;28;20503;-90
2022/11/04 04:34:38;;;;;;;13.32;2.85;;;12.30;99.90;;;;;;5014126;28;20168;-81
2022/11/04 04:37:19;;;;;;;8.55;2.13;;;12.40;99.90;;;;;;5011958;28;20239;-89
2022/11/04 04:45:38;;;;;;;8.93;2.25;;;12.30;99.90;;;;;;5013816;28;20188;-82
2022/11/04 04:48:06;;;;;;;4.13;1.63;;;12.40;99.90;;;;;;5013997;28;20215;-86
2022/11/04 04:50:36;;;;;;;6.47;1.70;;;12.30;99.90;;;;;;5014107;28;20172;-89
2022/11/04 04:53:03;;;;;;;8.25;1.88;;;12.30;99.90;;;;;;5013552;28;20161;-88
2022/11/04 04:55:30;;;;;;;9.90;1.80;;;12.40;99.90;;;;;;5015132;28;20168;-81
2022/11/04 04:57:56;;;;;;;6.43;2.30;;;12.30;99.90;;;;;;5020282;28;20330;-88
2022/11/04 05:00:22;;;;;;;5.75;1.80;;;12.40;99.90;;;;;;5020140;28;20622;-81
2022/11/04 05:02:48;;;;;;;12.10;2.15;;;12.30;99.90;;;;;;5020668;28;20179;-87
2022/11/04 05:05:14;;;;;;;9.30;1.88;;;12.20;99.90;;;;;;5027155;28;20185;-90
2022/11/04 05:07:39;;;;;;;7.60;2.88;;;12.30;99.90;;;;;;5019240;28;20196;-86
2022/11/04 05:10:07;;;;;;;6.63;1.55;;;12.40;99.90;;;;;;5020706;28;20187;-88
2022/11/04 05:15:19;;;;;;;6.65;2.22;;;12.60;99.90;;;;;;5020199;28;20183;-90
2022/11/04 05:17:44;;;;;;;16.45;1.92;;;12.50;99.90;;;;;;5018683;28;20283;-85
2022/11/04 05:20:11;;;;;;;9.10;2.38;;;12.40;99.90;;;;;;5018899;28;20225;-89
2022/11/04 05:22:36;;;;;;;3.90;1.70;;;12.40;99.90;;;;;;5019219;28;20654;-88
2022/11/04 05:25:02;;;;;;;15.30;1.98;;;12.40;99.90;;;;;;5018940;28;20165;-89
2022/11/04 05:27:28;;;;;;;8.50;2.00;;;12.40;99.90;;;;;;5020377;28;20248;-86
2022/11/04 05:29:53;;;;;;;5.50;2.05;;;12.60;99.90;;;;;;5020104;28;20160;-89
2022/11/04 05:32:19;;;;;;;10.52;2.67;;;12.60;99.90;;;;;;5020271;28;20173;-87
2022/11/04 05:34:46;;;;;;;8.27;2.03;;;12.60;99.90;;;;;;5021145;28;20168;-88
2022/11/04 05:37:12;;;;;;;8.25;1.85;;;12.50;99.90;;;;;;5019688;28;20216;-87
2022/11/04 05:39:37;;;;;;;3.75;1.70;;;12.70;99.90;;;;;;5019946;28;20157;-85
2022/11/04 05:42:03;;;;;;;6.85;1.80;;;12.70;99.90;;;;;;5019975;28;20168;-85
2022/11/04 05:44:28;;;;;;;5.72;1.70;;;12.50;99.90;;;;;;5020543;28;20169;-85
2022/11/04 05:46:54;;;;;;;10.80;2.38;;;12.60;99.90;;;;;;5021757;28;20177;-87
2022/11/04 05:49:20;;;;;;;5.22;2.00;;;12.50;99.90;;;;;;5018676;28;20224;-87
2022/11/04 05:51:45;;;;;;;4.88;2.00;;;12.50;99.90;;;;;;5019443;28;20204;-85
2022/11/04 05:54:11;;;;;;;7.07;2.08;;;12.50;99.90;;;;;;5018731;28;20203;-87
2022/11/04 05:56:36;;;;;;;12.30;2.00;;;12.50;99.90;;;;;;5018445;28;20232;-90
2022/11/04 05:59:02;;;;;;;13.90;2.28;;;12.40;99.90;;;;;;5019295;28;20275;-88
2022/11/04 06:01:35;;;;;;;5.57;2.75;;;12.40;99.90;;;;;;5035148;28;20164;-89
2022/11/04 06:04:04;;;;;;;11.38;2.00;;;12.30;99.90;;;;;;5019771;28;20307;-86
2022/11/04 06:06:32;;;;;;;18.17;2.25;;;12.30;99.90;;;;;;5018573;28;20261;-87
2022/11/04 06:08:59;;;;;;;2.47;1.70;;;12.30;99.90;;;;;;5016681;28;20557;-85
2022/11/04 06:11:26;;;;;;;4.53;1.70;;;12.30;99.90;;;;;;5017340;28;20215;-89
2022/11/04 06:13:53;;;;;;;7.05;2.00;;;12.30;99.90;;;;;;5016663;28;20207;-86
2022/11/04 06:16:20;;;;;;;10.43;2.10;;;12.40;99.90;;;;;;5016670;28;20175;-86
2022/11/04 06:18:45;;;;;;;11.63;2.35;;;12.40;99.90;;;;;;5016793;28;20197;-87
2022/11/04 06:21:14;;;;;;;7.68;1.52;;;12.70;99.90;;;;;;5016845;28;20645;-89
2022/11/04 06:23:40;;;;;;;5.97;1.70;;;12.50;99.90;;;;;;5015915;28;20244;-86
2022/11/04 06:26:06;;;;;;;5.93;2.53;;;12.60;99.90;;;;;;5016356;28;20259;-86
2022/11/04 06:28:32;;;;;;;12.35;2.78;;;12.80;99.90;;;;;;5014618;28;20598;-84
2022/11/04 06:31:00;;;;;;;12.48;1.73;;;12.80;99.90;;;;;;5016105;28;20168;-85
2022/11/04 06:33:27;;;;;;;4.80;1.80;;;12.60;99.90;;;;;;5015933;28;20165;-88
2022/11/04 06:35:56;;;;;;;12.30;1.90;;;12.70;99.90;;;;;;5016167;28;20648;-86
2022/11/04 06:38:22;;;;;;;5.65;1.85;;;12.60;99.90;;;;;;5014925;28;20219;-86
2022/11/04 06:40:47;;;;;;;11.38;2.50;;;12.80;99.90;;;;;;5014828;28;20164;-84
2022/11/04 06:43:13;;;;;;;3.90;2.03;;;12.90;99.90;;;;;;5014713;28;20507;-89
2022/11/04 06:45:39;;;;;;;12.05;2.53;;;12.90;99.90;;;;;;5015335;28;20171;-88
2022/11/04 06:48:05;;;;;;;10.25;2.17;;;12.70;99.90;;;;;;5013212;28;20301;-80
2022/11/04 06:50:30;;;;;;;4.50;1.80;;;12.50;99.90;;;;;;5013052;28;20200;-81
2022/11/04 06:52:56;;;;;;;5.05;1.73;;;12.60;99.90;;;;;;5013134;28;20177;-80
2022/11/04 06:55:22;;;;;;;6.55;1.90;;;12.50;99.90;;;;;;5013521;28;20173;-83
2022/11/04 06:57:47;;;;;;;8.02;1.92;;;12.50;99.90;;;;;;5014975;28;20270;-87
2022/11/04 07:00:13;;;;;;;6.93;2.10;;;12.50;99.90;;;;;;5029433;28;20171;-83
2022/11/04 07:02:39;;;;;;;5.13;1.90;;;12.40;99.90;;;;;;5014054;28;20175;-84
2022/11/04 07:05:06;;;;;;;4.90;1.70;;;12.60;99.90;;;;;;5014058;28;20188;-81
2022/11/04 07:07:31;;;;;;;9.43;2.42;;;12.60;99.90;;;;;;5014969;28;20184;-81
2022/11/04 07:09:57;;;;;;;10.40;2.22;;;12.70;99.90;;;;;;5012942;28;20176;-82
2022/11/04 07:12:23;;;;;;;9.25;2.42;;;12.60;99.90;;;;;;5013112;28;20181;-83
2022/11/04 07:14:49;;;;;;;4.18;2.00;;;12.80;99.90;;;;;;5016364;28;20160;-82
2022/11/04 07:17:15;;;;;;;7.88;2.40;;;12.80;99.90;;;;;;5014847;28;20255;-87
2022/11/04 07:19:41;;;;;;;10.65;2.08;;;12.90;99.90;;;;;;5015386;28;20215;-88
2022/11/04 07:22:07;;;;;;;5.60;1.88;;;13.00;99.90;;;;;;5017535;28;20730;-84
2022/11/04 07:24:33;;;;;;;14.88;2.20;;;13.00;99.90;;;;;;5013860;28;20267;-87
2022/11/04 07:26:58;;;;;;;11.13;2.38;;;13.10;99.90;;;;;;5014874;28;20189;-86
2022/11/04 07:29:24;;;;;;;12.10;2.15;;;13.00;99.90;;;;;;5013282;28;20251;-82
2022/11/04 07:31:50;;;;;;;6.70;1.98;;;12.90;99.90;;;;;;5014019;28;20228;-83
2022/11/04 07:34:16;;;;;;;8.25;1.90;;;13.00;99.90;;;;;;5014713;28;20161;-83
2022/11/04 07:36:42;;;;;;;9.75;2.53;;;13.20;99.90;;;;;;5013877;28;20199;-81
2022/11/04 07:39:07;;;;;;;2.90;1.77;;;13.20;99.90;;;;;;5012942;28;20665;-82
2022/11/04 07:41:33;;;;;;;10.00;4.95;;;13.30;99.90;;;;;;5013579;28;20173;-82
2022/11/04 07:44:00;;;;;;;6.90;2.65;;;13.50;99.90;;;;;;5013635;28;20527;-80
2022/11/04 07:46:26;;;;;;;4.47;2.50;;;13.50;99.90;;;;;;5014078;28;20168;-84
2022/11/04 07:48:55;;;;;;;3.08;1.98;;;13.30;99.90;;;;;;5013863;28;20204;-81
2022/11/04 07:51:20;;;;;;;10.70;2.80;;;13.40;99.90;;;;;;5014969;28;20200;-83
2022/11/04 07:53:46;;;;;;;5.35;2.30;;;13.50;99.90;;;;;;5015591;28;20161;-92
2022/11/04 07:56:12;;;;;;;9.88;1.83;;;13.40;99.90;;;;;;5013653;28;20180;-86
2022/11/04 07:58:39;;;;;;;13.68;2.35;;;13.40;99.90;;;;;;5013350;28;20192;-84
2022/11/04 08:01:15;;;;;;;3.80;1.65;;;13.40;99.90;;;;;;5015805;28;20173;-85
2022/11/04 08:03:40;;;;;;;4.05;2.13;;;13.50;99.90;;;;;;5012807;28;20168;-82
2022/11/04 08:06:08;;;;;;;7.60;2.60;;;13.40;99.90;;;;;;5013730;28;20194;-86
2022/11/04 08:08:33;;;;;;;4.55;1.50;;;13.40;99.90;;;;;;5012243;28;20184;-81
2022/11/04 08:11:02;;;;;;;14.80;2.80;;;13.30;99.90;;;;;;5012200;28;20729;-80
2022/11/04 08:13:30;;;;;;;5.85;2.03;;;13.50;99.90;;;;;;5013141;28;20244;-80
2022/11/04 08:15:56;;;;;;;9.45;2.05;;;13.60;99.90;;;;;;5013242;28;20208;-81
2022/11/04 08:18:22;;;;;;;3.83;2.25;;;13.60;99.90;;;;;;5012967;28;20236;-81
2022/11/04 08:20:49;;;;;;;11.57;2.22;;;13.60;99.90;;;;;;5013092;28;20203;-81
2022/11/04 08:23:16;;;;;;;6.43;2.17;;;13.70;99.90;;;;;;5006293;28;20263;-81
2022/11/04 08:25:42;;;;;;;10.88;2.05;;;13.70;99.90;;;;;;5001476;28;20175;-83
2022/11/04 08:28:11;;;;;;;15.18;2.35;;;13.50;99.90;;;;;;4991644;28;20193;-82
2022/11/04 08:30:37;;;;;;;6.88;2.20;;;13.50;99.90;;;;;;4994904;28;20234;-82
2022/11/04 08:33:04;;;;;;;3.25;1.73;;;13.60;99.90;;;;;;4993096;28;20643;-85
2022/11/04 08:35:30;;;;;;;6.97;2.35;;;13.60;99.90;;;;;;4990319;28;20170;-82
2022/11/04 08:37:55;;;;;;;8.57;1.75;;;13.20;99.90;;;;;;4992613;28;20205;-82
2022/11/04 08:40:21;;;;;;;9.07;2.50;;;13.20;99.90;;;;;;4993938;28;20256;-83
2022/11/04 08:42:47;;;;;;;5.00;2.05;;;13.30;99.90;;;;;;4990674;28;20300;-82
2022/11/04 08:45:12;;;;;;;17.20;2.75;;;13.50;99.90;;;;;;4991972;28;20177;-83
2022/11/04 08:47:38;;;;;;;11.07;2.00;;;13.80;99.90;;;;;;4991273;28;20668;-81
2022/11/04 08:50:04;;;;;;;8.90;2.08;;;13.90;99.90;;;;;;4991587;28;20173;-82
2022/11/04 08:52:30;;;;;;;8.98;1.85;;;13.70;99.90;;;;;;5007734;28;20172;-82
2022/11/04 08:54:55;;;;;;;11.90;2.70;;;13.90;99.90;;;;;;4991757;28;20316;-81
2022/11/04 08:57:21;;;;;;;13.40;2.65;;;13.90;99.90;;;;;;4990573;28;20224;-82
2022/11/04 08:59:47;;;;;;;11.07;2.58;;;14.10;99.90;;;;;;4990960;28;20205;-82
2022/11/04 09:02:16;;;;;;;7.35;2.42;;;14.10;99.90;;;;;;4992337;28;20264;-85
2022/11/04 09:04:41;;;;;;;3.72;1.70;;;13.70;99.90;;;;;;4990882;28;20181;-81
2022/11/04 09:07:08;;;;;;;7.63;1.70;;;13.80;99.90;;;;;;4992444;28;20595;-81
2022/11/04 09:09:34;;;;;;;12.30;2.22;;;13.90;99.90;;;;;;4991833;28;20211;-83
2022/11/04 09:11:59;;;;;;;11.85;2.40;;;14.00;99.90;;;;;;5019903;23;20217;-78
2022/11/04 09:14:25;;;;;;;10.57;2.38;;;14.10;99.90;;;;;;4991288;28;20169;-79
2022/11/04 09:16:52;;;;;;;11.80;2.63;;;14.10;99.90;;;;;;4992498;28;20721;-78
2022/11/04 09:19:18;;;;;;;11.27;1.92;;;14.20;99.90;;;;;;4992427;28;20628;-84
2022/11/04 09:21:43;;;;;;;11.27;1.98;;;14.20;99.90;;;;;;4992554;28;20233;-83
2022/11/04 09:24:10;;;;;;;13.63;2.10;;;14.20;99.90;;;;;;4992552;28;20517;-78
2022/11/04 09:26:36;;;;;;;8.30;2.15;;;14.40;99.90;;;;;;4992567;28;20211;-77
2022/11/04 09:29:01;;;;;;;6.18;2.00;;;14.20;99.90;;;;;;4992568;28;20661;-78
2022/11/04 09:31:29;;;;;;;11.25;2.70;;;14.30;99.90;;;;;;4992527;28;20243;-78
2022/11/04 09:33:55;;;;;;;9.27;2.50;;;14.50;99.90;;;;;;4992051;28;20255;-78
2022/11/04 09:36:21;;;;;;;6.25;2.13;;;14.50;99.90;;;;;;4991261;28;20176;-78
2022/11/04 09:38:46;;;;;;;7.70;3.03;;;14.50;99.90;;;;;;4992467;28;20193;-80
2022/11/04 09:41:46;;;;;;;6.00;2.00;;;14.60;99.90;;;;;;4991703;28;20188;-78
2022/11/04 09:44:26;;;;;;;12.80;2.83;;;14.60;99.90;;;;;;4996068;28;20172;-78
2022/11/04 09:46:56;;;;;;;9.07;2.42;;;14.70;99.90;;;;;;4994585;28;20643;-78
2022/11/04 09:49:23;;;;;;;10.98;2.90;;;14.80;99.90;;;;;;4996580;28;20253;-78
2022/11/04 09:51:50;;;;;;;12.02;2.45;;;14.80;99.90;;;;;;4996638;28;20233;-78
2022/11/04 09:54:53;;;;;;;4.35;2.40;;;14.80;99.90;;;;;;4996853;28;20655;-78
2022/11/04 09:57:19;;;;;;;12.00;2.88;;;15.00;99.90;;;;;;4979733;28;20725;-78
2022/11/04 09:59:46;;;;;;;17.25;3.22;;;15.00;99.90;;;;;;4996092;28;20169;-79
2022/11/04 10:02:41;;;;;;;9.40;2.65;;;14.90;99.90;;;;;;4996267;28;20195;-78
2022/11/04 10:05:25;;;;;;;8.27;2.83;;;14.80;99.90;;;;;;4996168;28;20539;-79
2022/11/04 10:08:00;;;;;;;9.77;2.92;;;14.90;99.90;;;;;;4996454;28;20200;-78
2022/11/04 10:10:38;;;;;;;7.78;2.83;;;14.80;99.90;;;;;;4996569;28;20192;-78
2022/11/04 10:13:17;;;;;;;9.82;2.97;;;14.90;99.90;;;;;;4996018;28;20179;-79
2022/11/04 10:16:11;;;;;;;6.85;2.45;;;15.10;99.90;;;;;;4996134;28;20164;-78
2022/11/04 10:18:42;;;;;;;6.55;2.88;;;15.00;99.90;;;;;;4996192;28;20614;-78
2022/11/04 10:21:28;;;;;;;13.15;2.60;;;14.20;99.90;;;;;;4996058;28;20173;-78
2022/11/04 10:24:14;;;;;;;11.85;3.17;;;14.20;99.90;;;;;;4996539;28;20173;-83
2022/11/04 10:26:49;;;;;;;10.85;2.67;;;14.50;99.90;;;;;;4957641;28;20562;-86
2022/11/04 10:29:40;;;;;;;11.82;2.90;;;14.50;99.90;;;;;;4996432;28;20160;-78
2022/11/04 10:32:26;;;;;;;8.35;2.45;;;14.60;99.90;;;;;;4997971;28;20234;-83
2022/11/04 10:35:04;;;;;;;15.10;2.90;;;14.80;99.90;;;;;;4995143;28;20683;-78
2022/11/04 10:37:30;;;;;;;10.05;2.90;;;14.70;99.90;;;;;;4995165;28;20213;-78
2022/11/04 10:40:27;;;;;;;13.02;3.28;;;14.70;99.90;;;;;;4996825;28;20164;-86
2022/11/04 10:42:56;;;;;;;9.13;2.88;;;14.70;99.90;;;;;;4986865;28;20271;-78
2022/11/04 10:45:29;;;;;;;5.95;3.63;;;14.60;99.90;;;;;;4995057;28;20158;-93
2022/11/04 10:48:06;;;;;;;10.98;3.55;;;14.30;99.90;;;;;;5006579;28;20192;-94
2022/11/04 10:51:02;;;;;;;18.35;3.25;;;14.10;99.90;;;;;;5015605;28;20153;-79
2022/11/04 10:53:54;;;;;;;21.73;4.00;;;14.00;99.90;;;;;;5001616;28;20181;-80
2022/11/04 10:56:25;;;;;;;8.70;4.25;;;14.00;99.90;;;;;;4994226;28;20192;-78
2022/11/04 10:58:54;;;;;;;10.75;4.03;;;14.20;99.90;;;;;;4994720;28;20189;-79
2022/11/04 11:01:34;;;;;;;27.05;6.15;;;14.20;99.90;;;;;;5001105;28;20170;-94
2022/11/04 11:04:04;;;;;;;10.18;4.93;;;13.70;99.90;;;;;;4999125;28;20204;-79
2022/11/04 11:06:34;;;;;;;21.45;5.88;;;13.50;99.90;;;;;;4994614;28;20623;-78
2022/11/04 11:09:20;;;;;;;19.00;5.93;;;13.70;99.90;;;;;;4993090;28;20195;-79
2022/11/04 11:11:48;;;;;;;11.95;5.10;;;14.20;99.90;;;;;;4994904;28;20184;-81
2022/11/04 11:14:31;;;;;;;6.90;4.93;;;14.30;99.90;;;;;;4994678;28;20169;-79
2022/11/04 11:17:13;;;;;;;14.38;5.35;;;14.40;99.90;;;;;;4994110;28;20681;-78
2022/11/04 11:20:07;;;;;;;9.55;4.70;;;14.60;99.90;;;;;;4994337;28;20256;-83
2022/11/04 11:22:41;;;;;;;11.07;4.35;;;14.70;99.90;;;;;;4994487;28;20192;-79
2022/11/04 11:25:27;;;;;;;5.45;3.50;;;14.80;99.90;;;;;;4994349;28;20179;-78
2022/11/04 11:28:00;;;;;;;20.83;3.72;;;14.60;99.90;;;;;;4995429;28;20181;-84
2022/11/04 11:30:28;;;;;;;11.77;4.35;;;14.90;99.90;;;;;;4996133;28;20184;-90
2022/11/04 11:32:59;;;;;;;6.03;3.40;;;15.10;99.90;;;;;;4998075;28;20201;-91
2022/11/04 11:35:30;;;;;;;9.18;3.85;;;14.70;99.90;;;;;;4999149;28;20165;-90
2022/11/04 11:37:57;;;;;;;12.65;6.00;;;14.70;99.90;;;;;;4998853;28;20244;-91
2022/11/04 11:40:36;;;;;;;9.63;4.45;;;14.80;99.90;;;;;;5001731;28;20165;-91
2022/11/04 11:43:04;;;;;;;11.65;4.40;;;14.90;99.90;;;;;;4996621;28;20184;-87
2022/11/04 11:45:31;;;;;;;16.33;5.50;;;15.00;99.90;;;;;;4996463;28;20177;-90
2022/11/04 11:47:56;;;;;;;9.75;5.78;;;15.00;99.90;;;;;;4995175;28;20307;-92
2022/11/04 11:50:34;;;;;;;15.07;5.53;;;15.00;99.90;;;;;;4995651;28;20227;-96
2022/11/04 11:53:19;;;;;;;10.13;5.63;;;15.00;99.90;;;;;;5014357;28;20161;-89
2022/11/04 11:55:59;;;;;;;10.98;5.07;;;14.70;99.90;;;;;;4995109;28;20311;-95
2022/11/04 11:58:32;;;;;;;7.68;5.20;;;14.80;99.90;;;;;;4998582;28;20274;-95
2022/11/04 12:01:27;;;;;;;13.13;4.88;;;14.80;99.90;;;;;;5017529;28;20145;-81
2022/11/04 12:03:53;;;;;;;8.10;4.07;;;14.50;99.90;;;;;;4999674;28;20200;-93
2022/11/04 12:06:58;;;;;;;7.93;4.10;;;14.40;99.90;;;;;;4996145;28;20165;-88
2022/11/04 12:09:56;;;;;;;12.45;5.43;;;14.30;99.90;;;;;;4995153;28;20195;-94
2022/11/04 12:12:35;;;;;;;25.42;6.93;;;14.40;99.90;;;;;;4953533;28;20547;-95
2022/11/04 12:15:21;;;;;;;20.73;7.18;;;14.60;99.90;;;;;;4995980;28;20160;-92
2022/11/04 12:18:08;;;;;;;32.80;10.18;;;14.80;99.90;;;;;;4995773;28;20205;-95
2022/11/04 12:20:41;;;;;;;14.75;4.63;;;14.90;99.90;;;;;;4994887;28;20189;-86
2022/11/04 12:23:09;;;;;;;11.77;4.65;;;14.90;99.90;;;;;;4995244;28;20180;-95
2022/11/04 12:25:54;;;;;;;10.65;5.78;;;14.40;99.90;;;;;;4995621;28;20177;-88
2022/11/04 12:28:32;;;;;;;10.55;5.18;;;14.40;99.90;;;;;;4995042;28;20232;-92
2022/11/04 12:31:11;;;;;;;13.27;5.47;;;14.30;99.90;;;;;;4995681;28;20251;-91
2022/11/04 12:34:05;;;;;;;12.98;7.00;;;14.20;99.90;;;;;;4995694;28;20161;-91
2022/11/04 12:36:52;;;;;;;18.13;4.65;;;14.30;99.90;;;;;;4993730;28;20263;-93
2022/11/04 12:39:36;;;;;;;7.30;4.70;;;14.40;99.90;;;;;;4994591;28;20161;-92
2022/11/04 12:42:20;;;;;;;13.60;4.63;;;14.50;99.90;;;;;;4993872;28;20173;-91
2022/11/04 12:44:58;;;;;;;8.38;4.15;;;14.50;99.90;;;;;;4993665;28;20212;-93
2022/11/04 12:47:58;;;;;;;18.25;5.03;;;14.60;99.90;;;;;;4999787;28;20304;-80
2022/11/04 12:50:23;;;;;;;9.25;4.15;;;14.40;99.90;;;;;;5002484;28;20177;-79
2022/11/04 12:53:27;;;;;;;14.00;4.40;;;14.40;99.90;;;;;;5004330;28;20704;-83
2022/11/04 12:56:14;;;;;;;10.18;5.15;;;14.20;99.90;;;;;;5002902;28;20183;-79
2022/11/04 12:58:55;;;;;;;8.30;4.47;;;14.30;99.90;;;;;;5000433;28;20229;-90
2022/11/04 13:01:31;;;;;;;11.27;4.43;;;14.20;99.90;;;;;;4994260;28;20169;-85
2022/11/04 13:04:09;;;;;;;12.65;5.38;;;14.30;99.90;;;;;;4994763;28;20643;-83
2022/11/04 13:07:07;;;;;;;13.40;5.43;;;14.40;99.90;;;;;;4996793;28;20168;-86
2022/11/04 13:09:39;;;;;;;12.52;4.90;;;14.40;99.90;;;;;;4993848;28;20196;-86
2022/11/04 13:12:21;;;;;;;11.52;6.32;;;14.40;99.90;;;;;;4994174;28;20196;-84
2022/11/04 13:14:53;;;;;;;9.20;6.00;;;14.70;99.90;;;;;;4992217;28;20631;-80
2022/11/04 13:17:26;;;;;;;10.55;6.80;;;14.60;99.90;;;;;;4990073;28;20208;-79
2022/11/04 13:19:55;;;;;;;13.50;6.88;;;14.60;99.90;;;;;;4996183;28;20177;-79
2022/11/04 13:22:48;;;;;;;17.08;6.78;;;14.60;99.90;;;;;;4996808;28;20164;-80
2022/11/04 13:25:35;;;;;;;10.25;5.55;;;14.60;99.90;;;;;;5012415;28;20208;-79
2022/11/04 13:28:02;;;;;;;8.05;6.40;;;14.50;99.90;;;;;;4996856;28;20185;-80
2022/11/04 13:30:54;;;;;;;13.73;7.43;;;14.40;99.90;;;;;;4999272;28;20252;-95
2022/11/04 13:33:37;;;;;;;8.32;6.63;;;14.20;99.90;;;;;;5007973;28;20177;-87
2022/11/04 13:36:05;;;;;;;11.63;6.32;;;14.10;99.90;;;;;;5000503;28;20173;-92
2022/11/04 13:38:44;;;;;;;10.32;6.55;;;14.10;99.90;;;;;;4997560;28;20266;-83
2022/11/04 13:41:15;;;;;;;11.68;7.07;;;14.30;99.90;;;;;;4997403;28;20889;-86
2022/11/04 13:43:51;;;;;;;8.57;5.65;;;14.30;99.90;;;;;;4996061;28;20173;-78